sensor_id;sensor_type;location;lat;lon;timestamp;pressure;altitude;pressure_sealevel;temperature;humidity
18436;BME280;9346;52.006;4.720;2022-07-24T00:01:43;101774.59;;;20.12;100.00
18436;BME280;9346;52.006;4.720;2022-07-24T00:04:10;101787.19;;;20.10;100.00
18436;BME280;9346;52.006;4.720;2022-07-24T00:06:37;101784.72;;;20.08;100.00
18436;BME280;9346;52.006;4.720;2022-07-24T00:09:04;101782.56;;;20.05;100.00
18436;BME280;9346;52.006;4.720;2022-07-24T00:11:31;101781.22;;;20.03;100.00
18436;BME280;9346;52.006;4.720;2022-07-24T00:13:58;101780.69;;;20.01;100.00
18436;BME280;9346;52.006;4.720;2022-07-24T00:16:25;101792.19;;;19.99;100.00
18436;BME280;9346;52.006;4.720;2022-07-24T00:18:54;101781.63;;;19.96;100.00
18436;BME280;9346;52.006;4.720;2022-07-24T00:21:20;101777.19;;;19.95;100.00
18436;BME280;9346;52.006;4.720;2022-07-24T00:23:47;101776.69;;;19.93;100.00
18436;BME280;9346;52.006;4.720;2022-07-24T00:26:14;101765.81;;;19.92;100.00
18436;BME280;9346;52.006;4.720;2022-07-24T00:28:41;101764.47;;;19.89;100.00
18436;BME280;9346;52.006;4.720;2022-07-24T00:31:08;101766.75;;;19.87;100.00
18436;BME280;9346;52.006;4.720;2022-07-24T00:33:35;101771.53;;;19.86;100.00
18436;BME280;9346;52.006;4.720;2022-07-24T00:36:05;101783.84;;;19.85;100.00
18436;BME280;9346;52.006;4.720;2022-07-24T00:38:32;101776.09;;;19.82;100.00
18436;BME280;9346;52.006;4.720;2022-07-24T00:40:58;101782.00;;;19.81;100.00
18436;BME280;9346;52.006;4.720;2022-07-24T00:43:26;101784.56;;;19.77;100.00
18436;BME280;9346;52.006;4.720;2022-07-24T00:45:53;101784.09;;;19.75;100.00
18436;BME280;9346;52.006;4.720;2022-07-24T00:48:20;101780.75;;;19.73;100.00
18436;BME280;9346;52.006;4.720;2022-07-24T00:50:47;101775.47;;;19.72;100.00
18436;BME280;9346;52.006;4.720;2022-07-24T00:53:16;101774.66;;;19.71;100.00
18436;BME280;9346;52.006;4.720;2022-07-24T00:55:43;101776.94;;;19.69;100.00
18436;BME280;9346;52.006;4.720;2022-07-24T00:58:10;101779.22;;;19.67;100.00
18436;BME280;9346;52.006;4.720;2022-07-24T01:00:38;101779.84;;;19.64;100.00
18436;BME280;9346;52.006;4.720;2022-07-24T01:03:05;101763.69;;;19.61;100.00
18436;BME280;9346;52.006;4.720;2022-07-24T01:05:32;101769.59;;;19.60;100.00
18436;BME280;9346;52.006;4.720;2022-07-24T01:07:59;101770.75;;;19.59;100.00
18436;BME280;9346;52.006;4.720;2022-07-24T01:10:28;101774.69;;;19.58;100.00
18436;BME280;9346;52.006;4.720;2022-07-24T01:12:56;101766.59;;;19.56;100.00
18436;BME280;9346;52.006;4.720;2022-07-24T01:15:23;101762.44;;;19.54;100.00
18436;BME280;9346;52.006;4.720;2022-07-24T01:17:49;101765.56;;;19.52;100.00
18436;BME280;9346;52.006;4.720;2022-07-24T01:20:16;101769.50;;;19.51;100.00
18436;BME280;9346;52.006;4.720;2022-07-24T01:22:45;101758.94;;;19.48;100.00
18436;BME280;9346;52.006;4.720;2022-07-24T01:25:12;101749.22;;;19.46;100.00
18436;BME280;9346;52.006;4.720;2022-07-24T01:27:39;101756.28;;;19.43;100.00
18436;BME280;9346;52.006;4.720;2022-07-24T01:30:07;101753.25;;;19.40;100.00
18436;BME280;9346;52.006;4.720;2022-07-24T01:32:35;101753.38;;;19.35;100.00
18436;BME280;9346;52.006;4.720;2022-07-24T01:35:03;101753.38;;;19.35;100.00
18436;BME280;9346;52.006;4.720;2022-07-24T01:37:30;101752.22;;;19.36;100.00
18436;BME280;9346;52.006;4.720;2022-07-24T01:39:58;101760.91;;;19.34;100.00
18436;BME280;9346;52.006;4.720;2022-07-24T01:42:25;101756.47;;;19.33;100.00
18436;BME280;9346;52.006;4.720;2022-07-24T01:44:52;101763.19;;;19.32;100.00
18436;BME280;9346;52.006;4.720;2022-07-24T01:47:19;101764.34;;;19.31;100.00
18436;BME280;9346;52.006;4.720;2022-07-24T01:49:47;101756.25;;;19.30;100.00
18436;BME280;9346;52.006;4.720;2022-07-24T01:52:14;101759.69;;;19.27;100.00
18436;BME280;9346;52.006;4.720;2022-07-24T01:54:41;101755.25;;;19.26;100.00
18436;BME280;9346;52.006;4.720;2022-07-24T01:57:09;101756.31;;;19.25;100.00
18436;BME280;9346;52.006;4.720;2022-07-24T01:59:43;101754.66;;;19.24;100.00
18436;BME280;9346;52.006;4.720;2022-07-24T02:02:09;101744.13;;;19.21;100.00
18436;BME280;9346;52.006;4.720;2022-07-24T02:04:36;101745.28;;;19.20;100.00
18436;BME280;9346;52.006;4.720;2022-07-24T02:07:04;101753.97;;;19.18;100.00
18436;BME280;9346;52.006;4.720;2022-07-24T02:09:31;101743.09;;;19.17;100.00
18436;BME280;9346;52.006;4.720;2022-07-24T02:11:58;101745.03;;;19.16;100.00
18436;BME280;9346;52.006;4.720;2022-07-24T02:14:27;101736.97;;;19.15;100.00
18436;BME280;9346;52.006;4.720;2022-07-24T02:16:54;101743.72;;;19.14;100.00
18436;BME280;9346;52.006;4.720;2022-07-24T02:19:21;101744.03;;;19.12;100.00
18436;BME280;9346;52.006;4.720;2022-07-24T02:21:49;101753.53;;;19.11;100.00
18436;BME280;9346;52.006;4.720;2022-07-24T02:24:16;101741.00;;;19.09;100.00
18436;BME280;9346;52.006;4.720;2022-07-24T02:26:43;101735.41;;;19.09;100.00
18436;BME280;9346;52.006;4.720;2022-07-24T02:29:10;101730.13;;;19.07;100.00
18436;BME280;9346;52.006;4.720;2022-07-24T02:31:38;101733.59;;;19.04;100.00
18436;BME280;9346;52.006;4.720;2022-07-24T02:34:05;101731.59;;;19.05;100.00
18436;BME280;9346;52.006;4.720;2022-07-24T02:36:32;101727.16;;;19.04;100.00
18436;BME280;9346;52.006;4.720;2022-07-24T02:38:59;101732.22;;;19.02;100.00
18436;BME280;9346;52.006;4.720;2022-07-24T02:41:25;101723.34;;;19.00;100.00
18436;BME280;9346;52.006;4.720;2022-07-24T02:43:52;101726.13;;;19.00;100.00
18436;BME280;9346;52.006;4.720;2022-07-24T02:46:19;101723.66;;;18.98;100.00
18436;BME280;9346;52.006;4.720;2022-07-24T02:48:47;101724.75;;;18.97;100.00
18436;BME280;9346;52.006;4.720;2022-07-24T02:51:14;101717.53;;;18.96;100.00
18436;BME280;9346;52.006;4.720;2022-07-24T02:53:41;101717.84;;;18.95;100.00
18436;BME280;9346;52.006;4.720;2022-07-24T02:56:08;101719.00;;;18.94;100.00
18436;BME280;9346;52.006;4.720;2022-07-24T02:58:35;101711.72;;;18.93;100.00
18436;BME280;9346;52.006;4.720;2022-07-24T03:01:02;101716.81;;;18.91;100.00
18436;BME280;9346;52.006;4.720;2022-07-24T03:03:29;101718.75;;;18.90;100.00
18436;BME280;9346;52.006;4.720;2022-07-24T03:05:57;101717.41;;;18.88;100.00
18436;BME280;9346;52.006;4.720;2022-07-24T03:08:24;101705.41;;;18.87;100.00
18436;BME280;9346;52.006;4.720;2022-07-24T03:10:51;101712.47;;;18.85;100.00
18436;BME280;9346;52.006;4.720;2022-07-24T03:13:17;101704.38;;;18.83;100.00
18436;BME280;9346;52.006;4.720;2022-07-24T03:15:44;101698.59;;;18.80;100.00
18436;BME280;9346;52.006;4.720;2022-07-24T03:18:11;101695.91;;;18.75;100.00
18436;BME280;9346;52.006;4.720;2022-07-24T03:20:38;101696.53;;;18.72;100.00
18436;BME280;9346;52.006;4.720;2022-07-24T03:23:06;101693.19;;;18.70;100.00
18436;BME280;9346;52.006;4.720;2022-07-24T03:25:34;101690.41;;;18.70;100.00
18436;BME280;9346;52.006;4.720;2022-07-24T03:28:00;101697.13;;;18.69;100.00
18436;BME280;9346;52.006;4.720;2022-07-24T03:30:27;101691.56;;;18.69;100.00
18436;BME280;9346;52.006;4.720;2022-07-24T03:32:54;101689.91;;;18.68;100.00
18436;BME280;9346;52.006;4.720;2022-07-24T03:35:21;101694.13;;;18.65;100.00
18436;BME280;9346;52.006;4.720;2022-07-24T03:37:48;101695.25;;;18.64;100.00
18436;BME280;9346;52.006;4.720;2022-07-24T03:40:17;101695.56;;;18.63;100.00
18436;BME280;9346;52.006;4.720;2022-07-24T03:42:44;101696.19;;;18.60;100.00
18436;BME280;9346;52.006;4.720;2022-07-24T03:45:10;101691.81;;;18.54;100.00
18436;BME280;9346;52.006;4.720;2022-07-24T03:47:37;101698.53;;;18.53;100.00
18436;BME280;9346;52.006;4.720;2022-07-24T03:50:05;101705.28;;;18.52;100.00
18436;BME280;9346;52.006;4.720;2022-07-24T03:52:32;101709.19;;;18.51;100.00
18436;BME280;9346;52.006;4.720;2022-07-24T03:54:59;101708.66;;;18.49;100.00
18436;BME280;9346;52.006;4.720;2022-07-24T03:57:29;101705.34;;;18.47;100.00
18436;BME280;9346;52.006;4.720;2022-07-24T03:59:56;101710.44;;;18.45;100.00
18436;BME280;9346;52.006;4.720;2022-07-24T04:02:23;101712.69;;;18.43;100.00
18436;BME280;9346;52.006;4.720;2022-07-24T04:04:50;101713.81;;;18.42;100.00
18436;BME280;9346;52.006;4.720;2022-07-24T04:07:17;101718.88;;;18.40;100.00
18436;BME280;9346;52.006;4.720;2022-07-24T04:09:44;101720.50;;;18.41;100.00
18436;BME280;9346;52.006;4.720;2022-07-24T04:12:11;101707.72;;;18.40;100.00
18436;BME280;9346;52.006;4.720;2022-07-24T04:14:39;101702.44;;;18.38;100.00
18436;BME280;9346;52.006;4.720;2022-07-24T04:17:07;101696.31;;;18.36;100.00
18436;BME280;9346;52.006;4.720;2022-07-24T04:19:34;101691.31;;;18.33;100.00
18436;BME280;9346;52.006;4.720;2022-07-24T04:22:01;101688.63;;;18.28;100.00
18436;BME280;9346;52.006;4.720;2022-07-24T04:24:28;101691.50;;;18.23;100.00
18436;BME280;9346;52.006;4.720;2022-07-24T04:26:55;101685.41;;;18.21;100.00
18436;BME280;9346;52.006;4.720;2022-07-24T04:29:22;101688.19;;;18.21;100.00
18436;BME280;9346;52.006;4.720;2022-07-24T04:31:51;101689.84;;;18.22;100.00
18436;BME280;9346;52.006;4.720;2022-07-24T04:34:17;101688.19;;;18.21;100.00
18436;BME280;9346;52.006;4.720;2022-07-24T04:36:44;101687.47;;;18.16;100.00
18436;BME280;9346;52.006;4.720;2022-07-24T04:39:11;101685.59;;;18.11;100.00
18436;BME280;9346;52.006;4.720;2022-07-24T04:41:38;101700.94;;;18.09;100.00
18436;BME280;9346;52.006;4.720;2022-07-24T04:44:05;101700.13;;;18.08;100.00
18436;BME280;9346;52.006;4.720;2022-07-24T04:46:32;101700.13;;;18.08;100.00
18436;BME280;9346;52.006;4.720;2022-07-24T04:49:00;101711.78;;;18.10;100.00
18436;BME280;9346;52.006;4.720;2022-07-24T04:51:27;101704.28;;;18.11;100.00
18436;BME280;9346;52.006;4.720;2022-07-24T04:53:54;101715.41;;;18.11;100.00
18436;BME280;9346;52.006;4.720;2022-07-24T04:56:21;101720.38;;;18.14;100.00
18436;BME280;9346;52.006;4.720;2022-07-24T04:58:48;101718.94;;;18.16;100.00
18436;BME280;9346;52.006;4.720;2022-07-24T05:01:16;101721.97;;;18.20;100.00
18436;BME280;9346;52.006;4.720;2022-07-24T05:03:42;101721.06;;;18.24;100.00
18436;BME280;9346;52.006;4.720;2022-07-24T05:06:11;101716.28;;;18.25;100.00
18436;BME280;9346;52.006;4.720;2022-07-24T05:08:38;101717.66;;;18.27;100.00
18436;BME280;9346;52.006;4.720;2022-07-24T05:11:05;101725.19;;;18.27;100.00
18436;BME280;9346;52.006;4.720;2022-07-24T05:13:32;101736.66;;;18.25;100.00
18436;BME280;9346;52.006;4.720;2022-07-24T05:15:58;101733.25;;;18.28;100.00
18436;BME280;9346;52.006;4.720;2022-07-24T05:18:25;101735.13;;;18.33;100.00
18436;BME280;9346;52.006;4.720;2022-07-24T05:20:52;101735.91;;;18.38;100.00
18436;BME280;9346;52.006;4.720;2022-07-24T05:23:20;101735.00;;;18.43;100.00
18436;BME280;9346;52.006;4.720;2022-07-24T05:25:47;101742.16;;;18.49;100.00
18436;BME280;9346;52.006;4.720;2022-07-24T05:28:15;101748.69;;;18.58;100.00
18436;BME280;9346;52.006;4.720;2022-07-24T05:30:42;101745.78;;;18.63;100.00
18436;BME280;9346;52.006;4.720;2022-07-24T05:33:09;101738.38;;;18.72;100.00
18436;BME280;9346;52.006;4.720;2022-07-24T05:35:37;101739.66;;;18.79;100.00
18436;BME280;9346;52.006;4.720;2022-07-24T05:38:04;101747.59;;;18.86;100.00
18436;BME280;9346;52.006;4.720;2022-07-24T05:40:32;101744.09;;;18.94;100.00
18436;BME280;9346;52.006;4.720;2022-07-24T05:42:59;101744.22;;;19.02;100.00
18436;BME280;9346;52.006;4.720;2022-07-24T05:45:26;101749.59;;;19.12;100.00
18436;BME280;9346;52.006;4.720;2022-07-24T05:47:53;101750.84;;;19.20;100.00
18436;BME280;9346;52.006;4.720;2022-07-24T05:50:20;101746.53;;;19.27;100.00
18436;BME280;9346;52.006;4.720;2022-07-24T05:52:47;101743.84;;;19.36;100.00
18436;BME280;9346;52.006;4.720;2022-07-24T05:55:14;101734.53;;;19.40;100.00
18436;BME280;9346;52.006;4.720;2022-07-24T05:57:43;101729.88;;;19.49;100.00
18436;BME280;9346;52.006;4.720;2022-07-24T06:00:10;101726.66;;;19.56;100.00
18436;BME280;9346;52.006;4.720;2022-07-24T06:02:37;101738.22;;;19.63;100.00
18436;BME280;9346;52.006;4.720;2022-07-24T06:05:04;101729.91;;;19.71;100.00
18436;BME280;9346;52.006;4.720;2022-07-24T06:07:31;101728.88;;;19.81;100.00
18436;BME280;9346;52.006;4.720;2022-07-24T06:09:58;101723.88;;;19.92;100.00
18436;BME280;9346;52.006;4.720;2022-07-24T06:12:25;101722.19;;;20.04;100.00
18436;BME280;9346;52.006;4.720;2022-07-24T06:14:54;101718.31;;;20.14;100.00
18436;BME280;9346;52.006;4.720;2022-07-24T06:17:21;101717.38;;;20.18;100.00
18436;BME280;9346;52.006;4.720;2022-07-24T06:19:48;101706.41;;;20.22;100.00
18436;BME280;9346;52.006;4.720;2022-07-24T06:22:14;101709.03;;;20.27;100.00
18436;BME280;9346;52.006;4.720;2022-07-24T06:24:41;101709.88;;;20.27;100.00
18436;BME280;9346;52.006;4.720;2022-07-24T06:27:08;101707.91;;;20.28;100.00
18436;BME280;9346;52.006;4.720;2022-07-24T06:29:35;101716.81;;;20.30;100.00
18436;BME280;9346;52.006;4.720;2022-07-24T06:32:04;101712.75;;;20.36;100.00
18436;BME280;9346;52.006;4.720;2022-07-24T06:34:32;101716.44;;;20.45;100.00
18436;BME280;9346;52.006;4.720;2022-07-24T06:36:58;101718.63;;;20.56;100.00
18436;BME280;9346;52.006;4.720;2022-07-24T06:39:25;101717.72;;;20.69;100.00
18436;BME280;9346;52.006;4.720;2022-07-24T06:41:52;101716.50;;;20.84;100.00
18436;BME280;9346;52.006;4.720;2022-07-24T06:44:22;101721.53;;;20.95;100.00
18436;BME280;9346;52.006;4.720;2022-07-24T06:46:49;101709.22;;;21.05;100.00
18436;BME280;9346;52.006;4.720;2022-07-24T06:49:18;101709.94;;;21.19;100.00
18436;BME280;9346;52.006;4.720;2022-07-24T06:51:45;101708.16;;;21.31;100.00
18436;BME280;9346;52.006;4.720;2022-07-24T06:54:13;101709.19;;;21.44;100.00
18436;BME280;9346;52.006;4.720;2022-07-24T06:56:40;101709.03;;;21.57;100.00
18436;BME280;9346;52.006;4.720;2022-07-24T06:59:06;101696.50;;;21.72;100.00
18436;BME280;9346;52.006;4.720;2022-07-24T07:01:33;101696.22;;;21.73;100.00
18436;BME280;9346;52.006;4.720;2022-07-24T07:04:00;101697.34;;;21.72;100.00
18436;BME280;9346;52.006;4.720;2022-07-24T07:06:28;101705.75;;;21.72;100.00
18436;BME280;9346;52.006;4.720;2022-07-24T07:08:56;101702.13;;;21.72;100.00
18436;BME280;9346;52.006;4.720;2022-07-24T07:11:22;101712.34;;;21.68;100.00
18436;BME280;9346;52.006;4.720;2022-07-24T07:13:49;101705.94;;;21.67;100.00
18436;BME280;9346;52.006;4.720;2022-07-24T07:16:16;101698.00;;;21.69;100.00
18436;BME280;9346;52.006;4.720;2022-07-24T07:18:43;101701.69;;;21.78;100.00
18436;BME280;9346;52.006;4.720;2022-07-24T07:21:10;101700.19;;;21.89;100.00
18436;BME280;9346;52.006;4.720;2022-07-24T07:23:39;101702.00;;;22.02;100.00
18436;BME280;9346;52.006;4.720;2022-07-24T07:26:05;101695.91;;;22.18;100.00
18436;BME280;9346;52.006;4.720;2022-07-24T07:28:32;101691.13;;;22.27;100.00
18436;BME280;9346;52.006;4.720;2022-07-24T07:30:59;101693.56;;;22.37;100.00
18436;BME280;9346;52.006;4.720;2022-07-24T07:33:26;101702.47;;;22.47;100.00
18436;BME280;9346;52.006;4.720;2022-07-24T07:35:53;101704.31;;;22.52;100.00
18436;BME280;9346;52.006;4.720;2022-07-24T07:38:20;101700.19;;;22.58;100.00
18436;BME280;9346;52.006;4.720;2022-07-24T07:40:48;101697.34;;;22.66;100.00
18436;BME280;9346;52.006;4.720;2022-07-24T07:43:15;101703.41;;;22.77;100.00
18436;BME280;9346;52.006;4.720;2022-07-24T07:45:42;101707.03;;;22.86;100.00
18436;BME280;9346;52.006;4.720;2022-07-24T07:48:09;101703.03;;;22.95;100.00
18436;BME280;9346;52.006;4.720;2022-07-24T07:50:36;101709.09;;;23.06;100.00
18436;BME280;9346;52.006;4.720;2022-07-24T07:53:03;101700.78;;;23.18;100.00
18436;BME280;9346;52.006;4.720;2022-07-24T07:55:30;101707.72;;;23.29;100.00
18436;BME280;9346;52.006;4.720;2022-07-24T07:58:00;101690.44;;;23.39;100.00
18436;BME280;9346;52.006;4.720;2022-07-24T08:00:27;101684.78;;;23.47;100.00
18436;BME280;9346;52.006;4.720;2022-07-24T08:02:54;101685.41;;;23.53;100.00
18436;BME280;9346;52.006;4.720;2022-07-24T08:05:20;101685.53;;;23.56;100.00
18436;BME280;9346;52.006;4.720;2022-07-24T08:07:48;101691.28;;;23.60;100.00
18436;BME280;9346;52.006;4.720;2022-07-24T08:10:15;101684.31;;;23.66;100.00
18436;BME280;9346;52.006;4.720;2022-07-24T08:12:41;101681.44;;;23.74;100.00
18436;BME280;9346;52.006;4.720;2022-07-24T08:15:11;101676.56;;;23.83;100.00
18436;BME280;9346;52.006;4.720;2022-07-24T08:17:38;101685.16;;;23.87;100.00
18436;BME280;9346;52.006;4.720;2022-07-24T08:20:05;101679.88;;;23.85;100.00
18436;BME280;9346;52.006;4.720;2022-07-24T08:22:32;101673.91;;;23.87;100.00
18436;BME280;9346;52.006;4.720;2022-07-24T08:24:59;101675.50;;;23.96;100.00
18436;BME280;9346;52.006;4.720;2022-07-24T08:27:25;101677.78;;;24.03;100.00
18436;BME280;9346;52.006;4.720;2022-07-24T08:29:52;101672.25;;;24.07;100.00
18436;BME280;9346;52.006;4.720;2022-07-24T08:32:22;101680.00;;;24.10;100.00
18436;BME280;9346;52.006;4.720;2022-07-24T08:34:49;101677.13;;;24.18;100.00
18436;BME280;9346;52.006;4.720;2022-07-24T08:37:18;101675.97;;;24.19;100.00
18436;BME280;9346;52.006;4.720;2022-07-24T08:39:46;101686.31;;;24.27;100.00
18436;BME280;9346;52.006;4.720;2022-07-24T08:42:12;101678.13;;;24.34;100.00
18436;BME280;9346;52.006;4.720;2022-07-24T08:44:39;101683.31;;;24.44;100.00
18436;BME280;9346;52.006;4.720;2022-07-24T08:47:06;101682.41;;;24.52;100.00
18436;BME280;9346;52.006;4.720;2022-07-24T08:49:37;101682.53;;;24.56;100.00
18436;BME280;9346;52.006;4.720;2022-07-24T08:52:05;101678.06;;;24.55;100.00
18436;BME280;9346;52.006;4.720;2022-07-24T08:54:33;101668.19;;;24.49;100.00
18436;BME280;9346;52.006;4.720;2022-07-24T08:57:00;101667.38;;;24.48;100.00
18436;BME280;9346;52.006;4.720;2022-07-24T08:59:27;101667.00;;;24.50;100.00
18436;BME280;9346;52.006;4.720;2022-07-24T09:01:54;101672.44;;;24.55;100.00
18436;BME280;9346;52.006;4.720;2022-07-24T09:04:32;101671.41;;;24.59;100.00
18436;BME280;9346;52.006;4.720;2022-07-24T09:07:02;101672.59;;;24.70;100.00
18436;BME280;9346;52.006;4.720;2022-07-24T09:09:29;101674.03;;;24.76;100.00
18436;BME280;9346;52.006;4.720;2022-07-24T09:12:06;101677.59;;;24.85;100.00
18436;BME280;9346;52.006;4.720;2022-07-24T09:14:39;101670.19;;;24.93;100.00
18436;BME280;9346;52.006;4.720;2022-07-24T09:17:09;101666.44;;;25.01;100.00
18436;BME280;9346;52.006;4.720;2022-07-24T09:19:46;101668.19;;;25.05;100.00
18436;BME280;9346;52.006;4.720;2022-07-24T09:22:33;101658.59;;;25.06;100.00
18436;BME280;9346;52.006;4.720;2022-07-24T09:25:07;101661.75;;;25.05;100.00
18436;BME280;9346;52.006;4.720;2022-07-24T09:27:36;101678.31;;;25.06;100.00
18436;BME280;9346;52.006;4.720;2022-07-24T09:30:05;101666.66;;;25.08;100.00
18436;BME280;9346;52.006;4.720;2022-07-24T09:32:32;101668.06;;;25.14;100.00
18436;BME280;9346;52.006;4.720;2022-07-24T09:34:59;101663.63;;;25.25;100.00
18436;BME280;9346;52.006;4.720;2022-07-24T09:37:26;101666.09;;;25.38;100.00
18436;BME280;9346;52.006;4.720;2022-07-24T09:40:05;101667.28;;;25.49;100.00
18436;BME280;9346;52.006;4.720;2022-07-24T09:42:33;101667.38;;;25.53;100.00
18436;BME280;9346;52.006;4.720;2022-07-24T09:45:06;101664.19;;;25.54;100.00
18436;BME280;9346;52.006;4.720;2022-07-24T09:47:35;101672.22;;;25.52;100.00
18436;BME280;9346;52.006;4.720;2022-07-24T09:50:17;101660.09;;;25.52;100.00
18436;BME280;9346;52.006;4.720;2022-07-24T09:52:45;101655.72;;;25.54;100.00
18436;BME280;9346;52.006;4.720;2022-07-24T09:55:24;101652.44;;;25.64;100.00
18436;BME280;9346;52.006;4.720;2022-07-24T09:57:52;101655.94;;;25.73;100.00
18436;BME280;9346;52.006;4.720;2022-07-24T10:00:19;101655.69;;;25.78;100.00
18436;BME280;9346;52.006;4.720;2022-07-24T10:02:46;101657.44;;;25.83;100.00
18436;BME280;9346;52.006;4.720;2022-07-24T10:05:14;101650.72;;;25.87;100.00
18436;BME280;9346;52.006;4.720;2022-07-24T10:07:42;101648.56;;;25.96;100.00
18436;BME280;9346;52.006;4.720;2022-07-24T10:10:12;101649.28;;;26.05;100.00
18436;BME280;9346;52.006;4.720;2022-07-24T10:12:44;101640.75;;;26.18;100.00
18436;BME280;9346;52.006;4.720;2022-07-24T10:15:12;101641.44;;;26.27;100.00
18436;BME280;9346;52.006;4.720;2022-07-24T10:18:01;101645.81;;;26.40;100.00
18436;BME280;9346;52.006;4.720;2022-07-24T10:20:38;101644.75;;;26.44;100.00
18436;BME280;9346;52.006;4.720;2022-07-24T10:23:06;101638.63;;;26.42;100.00
18436;BME280;9346;52.006;4.720;2022-07-24T10:25:52;101634.97;;;26.42;100.00
18436;BME280;9346;52.006;4.720;2022-07-24T10:28:35;101635.44;;;26.44;100.00
18436;BME280;9346;52.006;4.720;2022-07-24T10:31:06;101639.75;;;26.53;100.00
18436;BME280;9346;52.006;4.720;2022-07-24T10:33:35;101639.47;;;26.58;100.00
18436;BME280;9346;52.006;4.720;2022-07-24T10:36:06;101635.69;;;26.66;100.00
18436;BME280;9346;52.006;4.720;2022-07-24T10:38:37;101628.31;;;26.77;100.00
18436;BME280;9346;52.006;4.720;2022-07-24T10:41:12;101634.59;;;26.86;100.00
18436;BME280;9346;52.006;4.720;2022-07-24T10:44:15;101633.94;;;26.93;100.00
18436;BME280;9346;52.006;4.720;2022-07-24T10:47:04;101633.50;;;26.91;100.00
18436;BME280;9346;52.006;4.720;2022-07-24T10:49:33;101623.38;;;26.90;100.00
18436;BME280;9346;52.006;4.720;2022-07-24T10:52:00;101628.81;;;26.98;100.00
18436;BME280;9346;52.006;4.720;2022-07-24T10:54:27;101627.66;;;26.99;100.00
18436;BME280;9346;52.006;4.720;2022-07-24T10:56:54;101623.91;;;27.11;100.00
18436;BME280;9346;52.006;4.720;2022-07-24T10:59:35;101623.63;;;27.16;100.00
18436;BME280;9346;52.006;4.720;2022-07-24T11:02:25;101617.69;;;27.21;100.00
18436;BME280;9346;52.006;4.720;2022-07-24T11:05:24;101615.88;;;27.28;100.00
18436;BME280;9346;52.006;4.720;2022-07-24T11:08:24;101616.69;;;27.29;100.00
18436;BME280;9346;52.006;4.720;2022-07-24T11:10:57;101609.34;;;27.24;100.00
18436;BME280;9346;52.006;4.720;2022-07-24T11:13:46;101608.66;;;27.31;100.00
18436;BME280;9346;52.006;4.720;2022-07-24T11:16:20;101617.41;;;27.41;100.00
18436;BME280;9346;52.006;4.720;2022-07-24T11:22:10;101615.72;;;27.56;100.00
18436;BME280;9346;52.006;4.720;2022-07-24T11:24:42;101609.59;;;27.54;100.00
18436;BME280;9346;52.006;4.720;2022-07-24T11:27:17;101608.94;;;27.60;100.00
18436;BME280;9346;52.006;4.720;2022-07-24T11:29:51;101608.41;;;27.74;100.00
18436;BME280;9346;52.006;4.720;2022-07-24T11:32:21;101604.41;;;27.75;100.00
18436;BME280;9346;52.006;4.720;2022-07-24T11:34:49;101606.78;;;27.73;100.00
18436;BME280;9346;52.006;4.720;2022-07-24T11:37:17;101599.72;;;27.82;100.00
18436;BME280;9346;52.006;4.720;2022-07-24T11:39:45;101597.88;;;27.90;100.00
18436;BME280;9346;52.006;4.720;2022-07-24T11:42:13;101599.97;;;27.93;100.00
18436;BME280;9346;52.006;4.720;2022-07-24T11:44:41;101599.97;;;27.93;100.00
18436;BME280;9346;52.006;4.720;2022-07-24T11:47:10;101595.34;;;28.04;100.00
18436;BME280;9346;52.006;4.720;2022-07-24T11:49:42;101590.19;;;28.09;97.45
18436;BME280;9346;52.006;4.720;2022-07-24T11:52:20;101586.66;;;28.16;99.09
18436;BME280;9346;52.006;4.720;2022-07-24T11:54:48;101584.41;;;28.25;99.60
18436;BME280;9346;52.006;4.720;2022-07-24T11:57:20;101585.84;;;28.35;98.69
18436;BME280;9346;52.006;4.720;2022-07-24T11:59:48;101576.97;;;28.36;99.10
18436;BME280;9346;52.006;4.720;2022-07-24T12:02:16;101578.72;;;28.44;95.55
18436;BME280;9346;52.006;4.720;2022-07-24T12:04:47;101572.31;;;28.47;96.25
18436;BME280;9346;52.006;4.720;2022-07-24T12:07:16;101580.94;;;28.54;95.65
18436;BME280;9346;52.006;4.720;2022-07-24T12:09:44;101568.09;;;28.60;97.30
18436;BME280;9346;52.006;4.720;2022-07-24T12:12:21;101564.97;;;28.65;98.92
18436;BME280;9346;52.006;4.720;2022-07-24T12:14:51;101569.66;;;28.80;98.12
18436;BME280;9346;52.006;4.720;2022-07-24T12:17:18;101571.81;;;28.87;98.29
18436;BME280;9346;52.006;4.720;2022-07-24T12:19:54;101561.41;;;28.94;96.43
18436;BME280;9346;52.006;4.720;2022-07-24T12:22:22;101560.00;;;29.07;96.74
18436;BME280;9346;52.006;4.720;2022-07-24T12:24:50;101564.94;;;29.10;98.88
18436;BME280;9346;52.006;4.720;2022-07-24T12:27:35;101565.78;;;29.14;96.33
18436;BME280;9346;52.006;4.720;2022-07-24T12:30:14;101555.31;;;29.18;95.80
18436;BME280;9346;52.006;4.720;2022-07-24T12:32:52;101553.78;;;29.24;94.19
18436;BME280;9346;52.006;4.720;2022-07-24T12:35:21;101547.72;;;29.26;92.58
18436;BME280;9346;52.006;4.720;2022-07-24T12:37:49;101551.00;;;29.28;95.08
18436;BME280;9346;52.006;4.720;2022-07-24T12:40:24;101546.66;;;29.37;93.26
18436;BME280;9346;52.006;4.720;2022-07-24T12:43:04;101548.25;;;29.35;92.16
18436;BME280;9346;52.006;4.720;2022-07-24T12:45:33;101544.97;;;29.33;95.23
18436;BME280;9346;52.006;4.720;2022-07-24T12:48:09;101526.88;;;29.44;92.24
18436;BME280;9346;52.006;4.720;2022-07-24T12:50:38;101536.31;;;29.52;91.81
18436;BME280;9346;52.006;4.720;2022-07-24T12:53:07;101525.44;;;29.57;93.81
18436;BME280;9346;52.006;4.720;2022-07-24T12:55:35;101521.19;;;29.70;91.62
18436;BME280;9346;52.006;4.720;2022-07-24T12:58:04;101523.28;;;29.77;91.69
18436;BME280;9346;52.006;4.720;2022-07-24T13:00:32;101531.50;;;29.85;91.10
18436;BME280;9346;52.006;4.720;2022-07-24T13:02:59;101528.00;;;29.99;92.83